createdAt,value
2017-12-05T06:26:35.413Z,0
2017-12-05T06:27:07.522Z,0
2017-12-05T06:27:39.530Z,0
2017-12-05T06:28:11.494Z,0
2017-12-05T06:28:43.474Z,0
2017-12-05T06:29:15.479Z,0
2017-12-05T06:29:47.489Z,0
2017-12-05T06:30:19.534Z,0
2017-12-05T06:30:51.549Z,0
2017-12-05T06:31:23.534Z,0
2017-12-05T06:31:55.546Z,0
2017-12-05T06:32:27.512Z,0
2017-12-05T06:32:59.634Z,0
2017-12-05T06:33:31.657Z,0
2017-12-05T06:34:03.651Z,0
2017-12-05T06:34:35.669Z,0
2017-12-05T06:35:07.651Z,0
2017-12-05T06:35:39.628Z,0
2017-12-05T06:36:11.631Z,0
2017-12-05T06:36:43.648Z,0
2017-12-05T06:37:15.679Z,0
2017-12-05T06:37:47.765Z,0
2017-12-05T06:38:19.784Z,0
2017-12-05T06:38:51.784Z,0
2017-12-05T06:39:23.747Z,0
2017-12-05T06:39:55.760Z,0
2017-12-05T06:40:27.736Z,0
2017-12-05T06:40:59.709Z,0
2017-12-05T06:41:31.763Z,0
2017-12-05T06:42:03.719Z,0
2017-12-05T06:42:35.826Z,0
2017-12-05T06:43:07.824Z,0
2017-12-05T06:43:39.852Z,0
2017-12-05T06:44:11.874Z,0
2017-12-05T06:44:44.431Z,0
2017-12-05T06:45:16.411Z,0
2017-12-05T06:45:48.463Z,0
2017-12-05T06:46:20.483Z,0
2017-12-05T06:46:52.474Z,0
2017-12-05T06:47:24.473Z,0
2017-12-05T06:47:56.643Z,0
2017-12-05T06:48:28.718Z,0
2017-12-05T06:49:00.736Z,0
2017-12-05T06:49:32.749Z,0
2017-12-05T06:50:04.743Z,0
2017-12-05T06:50:36.760Z,0
2017-12-05T06:51:08.785Z,0
2017-12-05T06:51:40.790Z,0
2017-12-05T06:52:12.755Z,0
2017-12-05T06:52:44.841Z,0
2017-12-05T06:53:16.856Z,0
2017-12-05T06:53:48.957Z,0
2017-12-05T06:54:20.987Z,0
2017-12-05T06:54:52.959Z,0
2017-12-05T06:55:24.979Z,0
2017-12-05T06:55:56.982Z,0
2017-12-05T06:56:28.993Z,0
2017-12-05T06:57:01.049Z,0
2017-12-05T06:57:33.074Z,0
2017-12-05T06:58:05.051Z,0
2017-12-05T06:58:37.057Z,0
2017-12-05T06:59:09.060Z,0
2017-12-05T06:59:41.065Z,0
2017-12-05T07:00:13.063Z,0
2017-12-05T07:00:45.834Z,0
2017-12-05T07:01:17.812Z,0
2017-12-05T07:01:49.800Z,0
2017-12-05T07:02:21.780Z,0
2017-12-05T07:02:53.785Z,0
2017-12-05T07:03:25.806Z,0
2017-12-05T07:03:57.840Z,0
2017-12-05T07:04:29.810Z,0
2017-12-05T07:05:02.584Z,0
2017-12-05T07:05:34.592Z,0
2017-12-05T07:06:06.735Z,0
2017-12-05T07:06:38.816Z,0
2017-12-05T07:07:11.460Z,0
2017-12-05T07:07:43.431Z,0
2017-12-05T07:08:15.490Z,0
2017-12-05T07:08:47.522Z,0
2017-12-05T07:09:19.500Z,0
2017-12-05T07:09:51.539Z,0
2017-12-05T07:10:24.035Z,0
2017-12-05T07:10:56.072Z,0
2017-12-05T07:11:28.100Z,0
2017-12-05T07:12:00.132Z,0
2017-12-05T07:12:32.119Z,0
2017-12-05T07:13:04.137Z,0
2017-12-05T07:13:36.158Z,0
2017-12-05T07:14:08.102Z,0
2017-12-05T07:14:40.273Z,0
2017-12-05T07:15:12.464Z,0
2017-12-05T07:15:44.461Z,0
2017-12-05T07:16:16.491Z,0
2017-12-05T07:16:48.545Z,0
2017-12-05T07:17:20.529Z,0
2017-12-05T07:17:52.549Z,0
2017-12-05T07:18:24.561Z,0
2017-12-05T07:18:56.598Z,0
2017-12-05T07:19:28.661Z,0
2017-12-05T07:20:00.805Z,0
2017-12-05T07:20:32.970Z,0
2017-12-05T07:21:04.994Z,0
2017-12-05T07:21:36.959Z,0
2017-12-05T07:22:08.950Z,0
2017-12-05T07:22:40.919Z,0
2017-12-05T07:23:12.960Z,0
2017-12-05T07:23:44.949Z,0
2017-12-05T07:24:16.921Z,0
2017-12-05T07:24:48.912Z,0
2017-12-05T07:25:20.913Z,0
2017-12-05T07:25:53.359Z,0
2017-12-05T07:26:25.511Z,0
2017-12-05T07:26:57.536Z,0
2017-12-05T07:27:29.712Z,0
2017-12-05T07:28:01.792Z,0
2017-12-05T07:28:33.794Z,0
2017-12-05T07:29:06.668Z,0
2017-12-05T07:29:38.773Z,0
2017-12-05T07:30:10.746Z,0
2017-12-05T07:30:42.734Z,0
2017-12-05T07:31:14.759Z,0
2017-12-05T07:31:46.943Z,0
2017-12-05T07:32:18.970Z,0
2017-12-05T07:32:50.954Z,0
2017-12-05T07:33:22.998Z,0
2017-12-05T07:33:55.038Z,0
2017-12-05T07:34:27.052Z,0
2017-12-05T07:34:59.054Z,0
2017-12-05T07:35:31.080Z,0
2017-12-05T07:36:03.041Z,0
2017-12-05T07:36:35.042Z,0
2017-12-05T07:37:07.038Z,0
2017-12-05T07:37:39.104Z,0
2017-12-05T07:38:11.865Z,0
2017-12-05T07:38:43.838Z,0
2017-12-05T07:39:15.809Z,0
2017-12-05T07:39:48.195Z,0
2017-12-05T07:40:20.191Z,0
2017-12-05T07:40:52.166Z,0
2017-12-05T07:41:24.210Z,0
2017-12-05T07:41:56.239Z,0
2017-12-05T07:42:28.296Z,0
2017-12-05T07:43:00.311Z,0
2017-12-05T07:43:32.379Z,0
2017-12-05T07:44:04.349Z,0
2017-12-05T07:44:36.386Z,0
2017-12-05T07:45:08.400Z,0
2017-12-05T07:45:40.439Z,0
2017-12-05T07:46:12.475Z,0
2017-12-05T07:46:44.464Z,0
2017-12-05T07:47:16.542Z,0
2017-12-05T07:47:48.538Z,0
2017-12-05T07:48:20.576Z,0
2017-12-05T07:48:52.634Z,0
2017-12-05T07:49:24.606Z,0
2017-12-05T07:49:56.618Z,0
2017-12-05T07:50:28.621Z,0
2017-12-05T07:51:00.750Z,0
2017-12-05T07:51:32.738Z,5
2017-12-05T07:52:04.755Z,5
2017-12-05T07:52:36.759Z,5
2017-12-05T07:53:08.762Z,5
2017-12-05T07:53:40.791Z,5
2017-12-05T07:54:12.806Z,5
2017-12-05T07:54:44.839Z,5
2017-12-05T07:55:16.867Z,5
2017-12-05T07:55:48.883Z,5
2017-12-05T07:56:20.947Z,5
2017-12-05T07:56:53.030Z,5
2017-12-05T07:57:25.051Z,5
2017-12-05T07:57:57.164Z,5
2017-12-05T07:58:29.151Z,5
2017-12-05T07:59:01.193Z,5
2017-12-05T07:59:33.223Z,5
2017-12-05T08:00:05.405Z,5
2017-12-05T08:00:37.388Z,5
2017-12-05T08:01:09.372Z,5
2017-12-05T08:01:41.358Z,5
2017-12-05T08:02:13.403Z,5
2017-12-05T08:02:45.364Z,5
2017-12-05T08:03:17.428Z,10
2017-12-05T08:03:49.432Z,10
2017-12-05T08:04:21.463Z,10
2017-12-05T08:04:53.453Z,15
2017-12-05T08:05:25.438Z,15
2017-12-05T08:05:57.530Z,15
2017-12-05T08:06:29.508Z,15
2017-12-05T08:07:01.586Z,15
2017-12-05T08:07:33.819Z,10
2017-12-05T08:08:05.806Z,10
2017-12-05T08:08:37.814Z,10
2017-12-05T08:09:09.808Z,10
2017-12-05T08:09:41.841Z,10
2017-12-05T08:10:13.844Z,10
2017-12-05T08:10:46.016Z,10
2017-12-05T08:11:18.079Z,10
2017-12-05T08:11:50.127Z,10
2017-12-05T08:12:22.108Z,10
2017-12-05T08:12:54.194Z,10
2017-12-05T08:13:26.971Z,10
2017-12-05T08:13:59.013Z,5
2017-12-05T08:14:31.044Z,5
2017-12-05T08:15:03.244Z,10
2017-12-05T08:15:35.209Z,10
2017-12-05T08:16:07.179Z,10
2017-12-05T08:16:39.189Z,10
2017-12-05T08:17:11.210Z,10
2017-12-05T08:17:43.197Z,10
2017-12-05T08:18:15.207Z,10
2017-12-05T08:18:47.218Z,10
2017-12-05T08:19:19.239Z,15
2017-12-05T08:19:51.290Z,15
2017-12-05T08:20:23.335Z,15
2017-12-05T08:20:55.354Z,15
2017-12-05T08:21:27.389Z,10
2017-12-05T08:21:59.506Z,15
2017-12-05T08:22:32.234Z,10
2017-12-05T08:23:04.244Z,10
2017-12-05T08:23:36.239Z,10
2017-12-05T08:24:08.278Z,10
2017-12-05T08:24:40.302Z,15
2017-12-05T08:25:12.349Z,15
2017-12-05T08:25:44.353Z,15
2017-12-05T08:26:16.360Z,15
2017-12-05T08:26:48.363Z,15
2017-12-05T08:27:20.344Z,15
2017-12-05T08:27:52.366Z,15
2017-12-05T08:28:24.457Z,10
2017-12-05T08:28:56.464Z,15
2017-12-05T08:29:28.524Z,10
2017-12-05T08:30:00.524Z,10
2017-12-05T08:30:32.507Z,10
2017-12-05T08:31:04.509Z,10
2017-12-05T08:31:36.593Z,10
2017-12-05T08:32:08.578Z,10
2017-12-05T08:32:40.592Z,10
2017-12-05T08:33:12.628Z,10
2017-12-05T08:33:44.608Z,10
2017-12-05T08:34:16.633Z,10
2017-12-05T08:34:48.633Z,10
2017-12-05T08:35:20.727Z,10
2017-12-05T08:35:52.733Z,15
2017-12-05T08:36:24.740Z,15
2017-12-05T08:36:56.731Z,15
2017-12-05T08:37:28.805Z,15
2017-12-05T08:38:00.851Z,15
2017-12-05T08:38:32.857Z,10
2017-12-05T08:39:04.882Z,10
2017-12-05T08:39:36.870Z,10
2017-12-05T08:40:08.913Z,10
2017-12-05T08:40:40.878Z,10
2017-12-05T08:41:12.879Z,5
2017-12-05T08:41:44.865Z,5
2017-12-05T08:42:16.860Z,5
2017-12-05T08:42:48.838Z,5
2017-12-05T08:43:20.864Z,5
2017-12-05T08:43:52.855Z,10
2017-12-05T08:44:24.875Z,10
2017-12-05T08:44:56.919Z,10
2017-12-05T08:45:28.950Z,10
2017-12-05T08:46:00.946Z,10
2017-12-05T08:46:32.928Z,10
2017-12-05T08:47:04.900Z,10
2017-12-05T08:47:36.864Z,10
2017-12-05T08:48:09.410Z,5
2017-12-05T08:48:41.494Z,5
2017-12-05T08:49:13.552Z,5
2017-12-05T08:49:45.586Z,5
2017-12-05T08:50:17.595Z,10
2017-12-05T08:50:49.644Z,10
2017-12-05T08:51:21.628Z,5
2017-12-05T08:51:53.630Z,10
2017-12-05T08:52:25.676Z,10
2017-12-05T08:52:57.691Z,10
2017-12-05T08:53:29.723Z,10
2017-12-05T08:54:01.835Z,10
2017-12-05T08:54:33.848Z,5
2017-12-05T08:55:05.859Z,5
2017-12-05T08:55:37.860Z,5
2017-12-05T08:56:09.920Z,5
2017-12-05T08:56:41.907Z,5
2017-12-05T08:57:14.706Z,5
2017-12-05T08:57:46.701Z,5
2017-12-05T08:58:18.691Z,5
2017-12-05T08:58:50.703Z,5
2017-12-05T08:59:22.707Z,5
2017-12-05T08:59:54.728Z,5
2017-12-05T09:00:26.802Z,5
2017-12-05T09:00:58.805Z,5
2017-12-05T09:01:30.776Z,10
2017-12-05T09:02:02.788Z,10
2017-12-05T09:02:34.772Z,10
2017-12-05T09:03:06.744Z,10
2017-12-05T09:03:38.787Z,10
2017-12-05T09:04:10.809Z,10
2017-12-05T09:04:42.821Z,10
2017-12-05T09:05:14.855Z,5
2017-12-05T09:05:46.935Z,5
2017-12-05T09:06:19.000Z,5
2017-12-05T09:06:51.033Z,5
2017-12-05T09:07:23.063Z,5
2017-12-05T09:07:55.036Z,10
2017-12-05T09:08:27.006Z,10
2017-12-05T09:08:59.041Z,10
2017-12-05T09:09:31.053Z,10
2017-12-05T09:10:03.041Z,15
2017-12-05T09:10:35.040Z,10
2017-12-05T09:11:07.087Z,10
2017-12-05T09:11:39.073Z,10
2017-12-05T09:12:11.136Z,10
2017-12-05T09:12:43.146Z,10
2017-12-05T09:13:15.115Z,15
2017-12-05T09:13:47.102Z,15
2017-12-05T09:14:19.085Z,15
2017-12-05T09:14:51.157Z,15
2017-12-05T09:15:23.160Z,15
2017-12-05T09:15:55.140Z,15
2017-12-05T09:16:27.160Z,20
2017-12-05T09:16:59.142Z,20
2017-12-05T09:17:31.107Z,20
2017-12-05T09:18:03.130Z,20
2017-12-05T09:18:35.152Z,20
2017-12-05T09:19:07.264Z,15
2017-12-05T09:19:39.294Z,15
2017-12-05T09:20:11.305Z,15
2017-12-05T09:20:43.292Z,15
2017-12-05T09:21:15.298Z,15
2017-12-05T09:21:47.324Z,15
2017-12-05T09:22:19.461Z,15
2017-12-05T09:22:51.609Z,15
2017-12-05T09:23:23.596Z,15
2017-12-05T09:23:55.613Z,15
2017-12-05T09:24:27.666Z,15
2017-12-05T09:25:00.232Z,20
2017-12-05T09:25:32.275Z,20
2017-12-05T09:26:04.314Z,20
2017-12-05T09:26:36.323Z,20
2017-12-05T09:27:08.306Z,25
2017-12-05T09:27:40.288Z,25
2017-12-05T09:28:12.277Z,25
2017-12-05T09:28:44.292Z,25
2017-12-05T09:29:16.287Z,25
2017-12-05T09:29:48.287Z,25
2017-12-05T09:30:20.462Z,25
2017-12-05T09:30:52.528Z,25
2017-12-05T09:31:24.549Z,25
2017-12-05T09:31:56.546Z,25
2017-12-05T09:32:28.583Z,25
2017-12-05T09:33:00.675Z,25
2017-12-05T09:33:32.684Z,25
2017-12-05T09:34:04.756Z,25
2017-12-05T09:34:36.848Z,25
2017-12-05T09:35:08.910Z,25
2017-12-05T09:35:40.910Z,25
2017-12-05T09:36:12.939Z,25
2017-12-05T09:36:44.952Z,25
2017-12-05T09:37:16.917Z,25
2017-12-05T09:37:48.992Z,30
2017-12-05T09:38:21.103Z,30
2017-12-05T09:38:53.074Z,30
2017-12-05T09:39:25.127Z,30
2017-12-05T09:39:57.233Z,30
2017-12-05T09:40:29.257Z,30
2017-12-05T09:41:01.373Z,30
2017-12-05T09:41:33.404Z,30
2017-12-05T09:42:05.460Z,25
2017-12-05T09:42:37.582Z,25
2017-12-05T09:43:09.594Z,25
2017-12-05T09:43:41.719Z,25
2017-12-05T09:44:13.785Z,25
2017-12-05T09:44:45.870Z,25
2017-12-05T09:45:17.965Z,25
2017-12-05T09:45:50.006Z,25
2017-12-05T09:46:22.012Z,25
2017-12-05T09:46:54.038Z,20
2017-12-05T09:47:26.047Z,20
2017-12-05T09:47:58.008Z,15
2017-12-05T09:48:30.136Z,20
2017-12-05T09:49:02.149Z,25
2017-12-05T09:49:34.244Z,30
2017-12-05T09:50:06.364Z,35
2017-12-05T09:50:38.333Z,35
2017-12-05T09:51:10.380Z,30
2017-12-05T09:51:42.400Z,30
2017-12-05T09:52:14.419Z,35
2017-12-05T09:52:46.396Z,35
2017-12-05T09:53:18.436Z,35
2017-12-05T09:53:50.524Z,30
2017-12-05T09:54:22.628Z,25
2017-12-05T09:54:54.633Z,25
2017-12-05T09:55:26.772Z,25
2017-12-05T09:55:58.838Z,25
2017-12-05T09:56:30.857Z,30
2017-12-05T09:57:02.862Z,35
2017-12-05T09:57:34.880Z,35
2017-12-05T09:58:06.870Z,40
2017-12-05T09:58:38.898Z,40
2017-12-05T09:59:11.013Z,35
2017-12-05T09:59:43.141Z,35
2017-12-05T10:00:15.162Z,35
2017-12-05T10:00:47.161Z,35
2017-12-05T10:01:19.167Z,35
2017-12-05T10:01:51.170Z,35
2017-12-05T10:02:24.675Z,35
2017-12-05T10:02:56.713Z,35
2017-12-05T10:03:28.678Z,35
2017-12-05T10:04:00.753Z,35
2017-12-05T10:04:32.857Z,35
2017-12-05T10:05:04.871Z,35
2017-12-05T10:05:36.862Z,35
2017-12-05T10:06:08.852Z,35
2017-12-05T10:06:40.908Z,35
2017-12-05T10:07:12.954Z,35
2017-12-05T10:07:44.992Z,35
2017-12-05T10:08:17.036Z,35
2017-12-05T10:08:49.043Z,30
2017-12-05T10:09:21.058Z,30
2017-12-05T10:09:53.048Z,30
2017-12-05T10:10:25.036Z,35
2017-12-05T10:10:57.143Z,35
2017-12-05T10:11:29.286Z,35
2017-12-05T10:12:01.320Z,35
2017-12-05T10:12:33.348Z,35
2017-12-05T10:13:05.390Z,30
2017-12-05T10:13:37.485Z,30
2017-12-05T10:14:09.472Z,30
2017-12-05T10:14:41.504Z,30
2017-12-05T10:15:13.533Z,30
2017-12-05T10:15:45.635Z,30
2017-12-05T10:16:17.696Z,35
2017-12-05T10:16:50.132Z,35
2017-12-05T10:17:22.148Z,35
2017-12-05T10:17:54.198Z,35
2017-12-05T10:18:26.225Z,30
2017-12-05T10:18:58.380Z,30
2017-12-05T10:19:30.393Z,30
2017-12-05T10:20:03.267Z,30
2017-12-05T10:20:35.305Z,30
2017-12-05T10:21:07.317Z,30
2017-12-05T10:21:39.393Z,30
2017-12-05T10:22:11.387Z,30
2017-12-05T10:22:43.478Z,30
2017-12-05T10:23:15.474Z,30
2017-12-05T10:23:47.498Z,30
2017-12-05T10:24:20.365Z,30
2017-12-05T10:24:52.474Z,30
2017-12-05T10:25:24.457Z,30
2017-12-05T10:25:56.467Z,30
2017-12-05T10:26:28.475Z,30
2017-12-05T10:27:00.496Z,35
2017-12-05T10:27:32.499Z,35
2017-12-05T10:28:04.456Z,35
2017-12-05T10:28:36.474Z,35
2017-12-05T10:29:08.488Z,35
2017-12-05T10:29:40.522Z,35
2017-12-05T10:30:12.595Z,35
2017-12-05T10:30:44.568Z,35
2017-12-05T10:31:16.592Z,35
2017-12-05T10:31:48.622Z,35
2017-12-05T10:32:20.661Z,30
2017-12-05T10:32:52.793Z,35
2017-12-05T10:33:24.777Z,35
2017-12-05T10:33:56.757Z,35
2017-12-05T10:34:29.034Z,35
2017-12-05T10:35:01.029Z,35
2017-12-05T10:35:33.019Z,35
2017-12-05T10:36:05.054Z,35
2017-12-05T10:36:37.109Z,35
2017-12-05T10:37:09.083Z,35
2017-12-05T10:37:41.171Z,35
2017-12-05T10:38:13.204Z,35
2017-12-05T10:38:45.273Z,35
2017-12-05T10:39:17.284Z,35
2017-12-05T10:39:49.317Z,35
2017-12-05T10:40:21.297Z,35
2017-12-05T10:40:53.403Z,35
2017-12-05T10:41:25.393Z,35
2017-12-05T10:41:57.407Z,35
2017-12-05T10:42:29.423Z,35
2017-12-05T10:43:01.412Z,35
2017-12-05T10:43:33.470Z,35
2017-12-05T10:44:05.474Z,35
2017-12-05T10:44:37.431Z,35
2017-12-05T10:45:09.445Z,35
2017-12-05T10:45:41.486Z,35
2017-12-05T10:46:13.480Z,35
2017-12-05T10:46:45.580Z,35
2017-12-05T10:47:17.595Z,35
2017-12-05T10:47:49.579Z,35
2017-12-05T10:48:21.650Z,35
2017-12-05T10:48:53.629Z,35
2017-12-05T10:49:25.628Z,35
2017-12-05T10:49:57.652Z,30
2017-12-05T10:50:29.590Z,35
2017-12-05T10:51:01.641Z,35
2017-12-05T10:51:33.656Z,35
2017-12-05T10:52:05.679Z,35
2017-12-05T10:52:37.701Z,35
2017-12-05T10:53:09.915Z,35
2017-12-05T10:53:41.975Z,35
2017-12-05T10:54:13.944Z,35
2017-12-05T10:54:45.944Z,35
2017-12-05T10:55:17.953Z,35
2017-12-05T10:55:49.963Z,35
2017-12-05T10:56:21.993Z,35
2017-12-05T10:56:54.078Z,35
2017-12-05T10:57:26.097Z,35
2017-12-05T10:57:58.144Z,35
2017-12-05T10:58:30.125Z,35
2017-12-05T10:59:02.175Z,30
2017-12-05T10:59:34.175Z,30
2017-12-05T11:00:06.204Z,30
2017-12-05T11:00:38.339Z,30
2017-12-05T11:01:10.483Z,30
2017-12-05T11:01:42.719Z,30
2017-12-05T11:02:14.811Z,30
2017-12-05T11:02:46.880Z,30
2017-12-05T11:03:18.950Z,30
2017-12-05T11:03:50.959Z,30
2017-12-05T11:04:22.967Z,30
2017-12-05T11:04:55.131Z,30
2017-12-05T11:05:27.312Z,30
2017-12-05T11:05:59.303Z,30
2017-12-05T11:06:31.325Z,35
2017-12-05T11:07:03.356Z,35
2017-12-05T11:07:35.356Z,35
2017-12-05T11:08:07.398Z,35
2017-12-05T11:08:39.444Z,35
2017-12-05T11:09:11.517Z,35
2017-12-05T11:09:43.509Z,40
2017-12-05T11:10:15.543Z,40
2017-12-05T11:10:47.644Z,40
2017-12-05T11:11:19.673Z,40
2017-12-05T11:11:51.716Z,40
2017-12-05T11:12:23.706Z,40
2017-12-05T11:12:55.855Z,40
2017-12-05T11:13:27.870Z,40
2017-12-05T11:13:59.908Z,40
2017-12-05T11:14:31.906Z,40
2017-12-05T11:15:04.055Z,40
2017-12-05T11:15:36.670Z,40
2017-12-05T11:16:08.736Z,40
2017-12-05T11:16:40.880Z,40
2017-12-05T11:17:12.956Z,40
2017-12-05T11:17:45.043Z,40
2017-12-05T11:18:17.028Z,40
2017-12-05T11:18:49.064Z,35
2017-12-05T11:19:21.232Z,35
2017-12-05T11:19:53.221Z,35
2017-12-05T11:20:25.181Z,35
2017-12-05T11:20:57.259Z,35
2017-12-05T11:21:29.257Z,30
2017-12-05T11:22:01.256Z,30
2017-12-05T11:22:33.333Z,30
2017-12-05T11:23:05.311Z,30
2017-12-05T11:23:37.400Z,30
2017-12-05T11:24:09.389Z,30
2017-12-05T11:24:41.552Z,30
2017-12-05T11:25:17.251Z,30
2017-12-05T11:25:49.226Z,25
2017-12-05T11:26:21.437Z,25
2017-12-05T11:26:53.438Z,25
2017-12-05T11:27:25.440Z,25
2017-12-05T11:27:57.845Z,25
2017-12-05T11:28:29.830Z,25
2017-12-05T11:29:01.842Z,20
2017-12-05T11:29:33.898Z,20
2017-12-05T11:30:05.949Z,20
2017-12-05T11:30:37.986Z,20
2017-12-05T11:31:10.060Z,20
2017-12-05T11:31:42.084Z,20
2017-12-05T11:32:14.066Z,20
2017-12-05T11:32:46.125Z,20
2017-12-05T11:33:18.279Z,20
2017-12-05T11:33:51.262Z,20
2017-12-05T11:34:23.326Z,20
2017-12-05T11:34:55.362Z,20
2017-12-05T11:35:27.392Z,20
2017-12-05T11:35:59.452Z,20
2017-12-05T11:36:31.480Z,20
2017-12-05T11:37:03.506Z,25
2017-12-05T11:37:35.521Z,25
2017-12-05T11:38:07.620Z,25
2017-12-05T11:38:40.493Z,25
2017-12-05T11:39:12.772Z,25
2017-12-05T11:39:44.840Z,25
2017-12-05T11:40:16.911Z,25
2017-12-05T11:40:49.079Z,25
2017-12-05T11:41:21.245Z,25
2017-12-05T11:41:53.246Z,25
2017-12-05T11:42:25.218Z,25
2017-12-05T11:42:57.386Z,25
2017-12-05T11:43:29.350Z,25
2017-12-05T11:44:01.392Z,25
2017-12-05T11:44:33.407Z,25
2017-12-05T11:45:05.488Z,20
2017-12-05T11:45:37.498Z,20
2017-12-05T11:46:09.490Z,20
2017-12-05T11:46:41.550Z,20
2017-12-05T11:47:13.562Z,25
2017-12-05T11:47:45.590Z,25
2017-12-05T11:48:17.652Z,30
2017-12-05T11:48:49.657Z,30
2017-12-05T11:49:21.698Z,30
2017-12-05T11:49:53.725Z,30
2017-12-05T11:50:25.715Z,30
2017-12-05T11:50:57.717Z,30
2017-12-05T11:51:29.755Z,30
2017-12-05T11:52:02.188Z,30
2017-12-05T11:52:34.310Z,30
2017-12-05T11:53:06.310Z,30
2017-12-05T11:53:38.580Z,30
2017-12-05T11:54:10.590Z,35
2017-12-05T11:54:42.628Z,35
2017-12-05T11:55:14.648Z,35
2017-12-05T11:55:46.698Z,35
2017-12-05T11:56:18.726Z,35
2017-12-05T11:56:50.719Z,35
2017-12-05T11:57:22.733Z,35
2017-12-05T11:57:54.698Z,35
2017-12-05T11:58:30.619Z,35
2017-12-05T11:59:02.595Z,35
2017-12-05T11:59:34.697Z,35
2017-12-05T12:00:06.765Z,35
2017-12-05T12:00:38.813Z,35
2017-12-05T12:01:10.821Z,30
2017-12-05T12:01:42.966Z,30
2017-12-05T12:02:14.993Z,30
2017-12-05T12:02:47.047Z,25
2017-12-05T12:03:19.091Z,25
2017-12-05T12:03:51.098Z,20
2017-12-05T12:04:23.263Z,20
2017-12-05T12:04:55.308Z,20
2017-12-05T12:05:27.326Z,20
2017-12-05T12:05:59.318Z,20
2017-12-05T12:06:31.318Z,20
2017-12-05T12:07:03.343Z,20
2017-12-05T12:07:35.456Z,20
2017-12-05T12:08:07.507Z,20
2017-12-05T12:08:39.526Z,20
2017-12-05T12:09:11.565Z,20
2017-12-05T12:09:43.602Z,20
2017-12-05T12:10:15.773Z,20
2017-12-05T12:10:48.316Z,20
2017-12-05T12:11:20.328Z,20
2017-12-05T12:11:52.446Z,25
2017-12-05T12:12:24.433Z,25
2017-12-05T12:12:56.466Z,25
2017-12-05T12:13:28.511Z,25
2017-12-05T12:14:00.504Z,25
2017-12-05T12:14:32.492Z,30
2017-12-05T12:15:04.518Z,30
2017-12-05T12:15:36.539Z,25
2017-12-05T12:16:08.598Z,25
2017-12-05T12:16:40.783Z,25
2017-12-05T12:17:12.750Z,25
2017-12-05T12:17:44.728Z,25
2017-12-05T12:18:17.067Z,25
2017-12-05T12:18:49.068Z,25
2017-12-05T12:19:21.099Z,25
2017-12-05T12:19:53.118Z,30
2017-12-05T12:20:25.161Z,25
2017-12-05T12:20:57.215Z,25
2017-12-05T12:21:29.186Z,25
2017-12-05T12:22:01.272Z,25
2017-12-05T12:22:33.264Z,25
2017-12-05T12:23:05.267Z,25
2017-12-05T12:23:37.350Z,25
2017-12-05T12:24:09.347Z,25
2017-12-05T12:24:41.341Z,30
2017-12-05T12:25:13.404Z,30
2017-12-05T12:25:45.420Z,30
2017-12-05T12:26:17.441Z,30
2017-12-05T12:26:49.503Z,30
2017-12-05T12:27:21.543Z,30
2017-12-05T12:27:53.534Z,30
2017-12-05T12:28:25.522Z,30
2017-12-05T12:28:57.534Z,30
2017-12-05T12:29:29.535Z,25
2017-12-05T12:30:01.729Z,25
2017-12-05T12:30:33.941Z,25
2017-12-05T12:31:06.827Z,25
2017-12-05T12:31:38.860Z,25
2017-12-05T12:32:10.830Z,30
2017-12-05T12:32:42.854Z,30
2017-12-05T12:33:15.525Z,30
2017-12-05T12:33:47.500Z,35
2017-12-05T12:34:19.542Z,35
2017-12-05T12:34:51.555Z,35
2017-12-05T12:35:23.634Z,35
2017-12-05T12:35:55.740Z,35
2017-12-05T12:36:27.869Z,35
2017-12-05T12:36:59.836Z,35
2017-12-05T12:37:31.845Z,35
2017-12-05T12:38:03.942Z,35
2017-12-05T12:38:36.114Z,35
2017-12-05T12:39:08.255Z,35
2017-12-05T12:39:40.278Z,35
2017-12-05T12:40:12.368Z,35
2017-12-05T12:40:44.415Z,35
2017-12-05T12:41:16.420Z,35
2017-12-05T12:41:48.422Z,35
2017-12-05T12:42:20.408Z,35
2017-12-05T12:42:52.490Z,35
2017-12-05T12:43:24.544Z,35
2017-12-05T12:43:56.531Z,35
2017-12-05T12:44:28.544Z,30
2017-12-05T12:45:00.569Z,30
2017-12-05T12:45:32.544Z,25
2017-12-05T12:46:04.581Z,25
2017-12-05T12:46:36.678Z,25
2017-12-05T12:47:08.721Z,25
2017-12-05T12:47:40.712Z,25
2017-12-05T12:48:12.760Z,25
2017-12-05T12:48:44.779Z,25
2017-12-05T12:49:16.797Z,25
2017-12-05T12:49:48.811Z,25
2017-12-05T12:50:20.839Z,20
2017-12-05T12:50:52.814Z,20
2017-12-05T12:51:24.927Z,20
2017-12-05T12:51:56.950Z,20
2017-12-05T12:52:28.935Z,25
2017-12-05T12:53:00.928Z,25
2017-12-05T12:53:32.958Z,25
2017-12-05T12:54:04.977Z,25
2017-12-05T12:54:37.011Z,20
2017-12-05T12:55:09.101Z,20
2017-12-05T12:55:41.100Z,20
2017-12-05T12:56:13.123Z,20
2017-12-05T12:56:46.040Z,20
2017-12-05T12:57:18.032Z,15
2017-12-05T12:57:50.014Z,15
2017-12-05T12:58:22.052Z,15
2017-12-05T12:58:54.076Z,15
2017-12-05T12:59:26.065Z,15
2017-12-05T12:59:58.091Z,15
2017-12-05T13:00:30.098Z,15
2017-12-05T13:01:02.098Z,15
2017-12-05T13:01:34.746Z,15
2017-12-05T13:02:06.769Z,15
2017-12-05T13:02:38.848Z,15
2017-12-05T13:03:10.845Z,15
2017-12-05T13:03:42.863Z,15
2017-12-05T13:04:14.885Z,15
2017-12-05T13:04:46.938Z,15
2017-12-05T13:05:18.986Z,15
2017-12-05T13:05:50.977Z,15
2017-12-05T13:06:23.016Z,15
2017-12-05T13:06:55.004Z,15
2017-12-05T13:07:27.103Z,15
2017-12-05T13:07:59.104Z,15
2017-12-05T13:08:31.139Z,15
2017-12-05T13:09:03.158Z,15
2017-12-05T13:09:35.217Z,15
2017-12-05T13:10:07.218Z,15
2017-12-05T13:10:39.204Z,15
2017-12-05T13:11:11.211Z,15
2017-12-05T13:11:43.223Z,15
2017-12-05T13:12:15.236Z,15
2017-12-05T13:12:47.322Z,15
2017-12-05T13:13:19.309Z,15
2017-12-05T13:13:51.291Z,15
2017-12-05T13:14:23.388Z,15
2017-12-05T13:14:55.383Z,15
2017-12-05T13:15:27.438Z,15
2017-12-05T13:15:59.433Z,15
2017-12-05T13:16:31.422Z,20
2017-12-05T13:17:03.482Z,20
2017-12-05T13:17:35.529Z,20
2017-12-05T13:18:07.523Z,20
2017-12-05T13:18:39.476Z,20
2017-12-05T13:19:11.460Z,15
2017-12-05T13:19:43.462Z,15
2017-12-05T13:20:15.503Z,15
2017-12-05T13:20:47.561Z,15
2017-12-05T13:21:19.518Z,15
2017-12-05T13:21:51.527Z,15
2017-12-05T13:22:23.475Z,15
2017-12-05T13:22:55.469Z,15
2017-12-05T13:23:27.524Z,15
2017-12-05T13:23:59.498Z,15
2017-12-05T13:24:31.533Z,15
2017-12-05T13:25:03.570Z,15
2017-12-05T13:25:35.628Z,15
2017-12-05T13:26:07.575Z,15
2017-12-05T13:26:39.622Z,15
2017-12-05T13:27:11.619Z,15
2017-12-05T13:27:43.624Z,15
2017-12-05T13:28:15.621Z,15
2017-12-05T13:28:47.622Z,15
2017-12-05T13:29:19.606Z,15
2017-12-05T13:29:51.781Z,15
2017-12-05T13:30:23.894Z,15
2017-12-05T13:30:55.912Z,15
2017-12-05T13:31:27.926Z,15
2017-12-05T13:32:00.027Z,15
2017-12-05T13:32:32.275Z,15
2017-12-05T13:33:04.357Z,15
2017-12-05T13:33:36.631Z,15
2017-12-05T13:34:08.768Z,10
2017-12-05T13:34:40.928Z,10
2017-12-05T13:35:12.997Z,10
2017-12-05T13:35:45.075Z,10
2017-12-05T13:36:17.300Z,10
2017-12-05T13:36:49.383Z,10
2017-12-05T13:37:21.407Z,10
2017-12-05T13:37:53.518Z,10
2017-12-05T13:38:25.549Z,10
2017-12-05T13:38:57.586Z,10
2017-12-05T13:39:29.778Z,10
2017-12-05T13:40:01.765Z,10
2017-12-05T13:40:33.833Z,10
2017-12-05T13:41:05.865Z,10
2017-12-05T13:41:37.978Z,5
2017-12-05T13:42:10.265Z,5
2017-12-05T13:42:42.332Z,5
2017-12-05T13:43:14.338Z,5
2017-12-05T13:43:46.461Z,5
2017-12-05T13:44:18.528Z,5
2017-12-05T13:44:50.556Z,5
2017-12-05T13:45:22.842Z,5
2017-12-05T13:45:55.008Z,5
2017-12-05T13:46:27.028Z,5
2017-12-05T13:46:59.202Z,5
2017-12-05T13:47:31.207Z,5
2017-12-05T13:48:03.452Z,5
2017-12-05T13:48:35.573Z,5
2017-12-05T13:49:07.722Z,10
2017-12-05T13:49:40.113Z,10
2017-12-05T13:50:12.152Z,10
2017-12-05T13:50:44.285Z,10
2017-12-05T13:51:16.420Z,10
2017-12-05T13:51:48.511Z,10
2017-12-05T13:52:20.551Z,10
2017-12-05T13:52:52.605Z,10
2017-12-05T13:53:24.648Z,10
2017-12-05T13:53:56.769Z,10
2017-12-05T13:54:28.843Z,10
2017-12-05T13:55:00.873Z,10
2017-12-05T13:55:32.942Z,10
2017-12-05T13:56:04.948Z,10
2017-12-05T13:56:37.014Z,10
2017-12-05T13:57:09.062Z,10
2017-12-05T13:57:41.086Z,10
2017-12-05T13:58:13.092Z,10
2017-12-05T13:58:45.118Z,10
2017-12-05T13:59:17.414Z,10
2017-12-05T13:59:49.396Z,10
2017-12-05T14:00:21.778Z,10
2017-12-05T14:00:53.849Z,10
2017-12-05T14:01:25.908Z,10
2017-12-05T14:01:58.067Z,10
2017-12-05T14:02:30.246Z,10
2017-12-05T14:03:02.235Z,10
2017-12-05T14:03:34.363Z,10
2017-12-05T14:04:07.244Z,10
2017-12-05T14:04:39.477Z,10
2017-12-05T14:05:11.481Z,10
2017-12-05T14:05:43.550Z,10
2017-12-05T14:06:15.588Z,10
2017-12-05T14:06:47.796Z,10
2017-12-05T14:07:19.861Z,10
2017-12-05T14:07:52.398Z,10